Time;durP1;ratioP1;P1;durP2;ratioP2;P2;SDS_P1;SDS_P2;PMS_P1;PMS_P2;Temp;Humidity;BMP_temperature;BMP_pressure;BME280_temperature;BME280_humidity;BME280_pressure;Samples;Min_cycle;Max_cycle;Signal;HPM_P1;HPM_P2
2023/08/31 00:02:00;;;;;;;2.07;1.13;;;;;;;;;;5086187;28;20048;-62
2023/08/31 00:04:26;;;;;;;2.22;1.20;;;;;;;;;;5085416;27;20044;-62
2023/08/31 00:06:53;;;;;;;2.88;1.20;;;;;;;;;;5079669;28;20051;-61
2023/08/31 00:09:20;;;;;;;4.32;1.17;;;;;;;;;;5083907;28;20063;-61
2023/08/31 00:11:48;;;;;;;4.45;1.15;;;;;;;;;;5075708;28;20483;-61
2023/08/31 00:14:15;;;;;;;2.03;1.20;;;;;;;;;;5075590;28;20108;-61
2023/08/31 00:16:41;;;;;;;4.32;1.58;;;;;;;;;;5077160;28;20201;-61
2023/08/31 00:19:08;;;;;;;4.50;1.50;;;;;;;;;;5085032;28;20344;-61
2023/08/31 00:21:35;;;;;;;1.83;1.15;;;;;;;;;;5080237;28;20052;-61
2023/08/31 00:24:01;;;;;;;3.58;1.35;;;;;;;;;;5072522;28;20097;-61
2023/08/31 00:26:29;;;;;;;2.63;1.30;;;;;;;;;;5064964;28;20260;-61
2023/08/31 00:28:58;;;;;;;4.68;1.40;;;;;;;;;;5078616;28;20052;-61
2023/08/31 00:31:27;;;;;;;2.83;1.30;;;;;;;;;;5073308;28;20052;-61
2023/08/31 00:33:53;;;;;;;3.65;1.40;;;;;;;;;;5068729;28;20106;-61
2023/08/31 00:36:20;;;;;;;7.35;1.60;;;;;;;;;;5064954;28;20564;-60
2023/08/31 00:38:47;;;;;;;3.20;1.50;;;;;;;;;;5078687;28;20121;-61
2023/08/31 00:41:14;;;;;;;5.18;1.77;;;;;;;;;;5070242;28;20078;-61
2023/08/31 00:43:41;;;;;;;3.38;1.25;;;;;;;;;;5063311;28;20076;-61
2023/08/31 00:46:11;;;;;;;3.97;1.75;;;;;;;;;;5068472;28;20084;-61
2023/08/31 00:48:37;;;;;;;3.08;1.52;;;;;;;;;;5078196;28;20100;-62
2023/08/31 00:51:06;;;;;;;4.00;1.35;;;;;;;;;;5077033;28;20052;-61
2023/08/31 00:53:33;;;;;;;2.70;1.52;;;;;;;;;;5071479;28;20079;-62
2023/08/31 00:55:59;;;;;;;5.47;1.77;;;;;;;;;;5072388;28;20483;-62
2023/08/31 00:58:26;;;;;;;4.93;2.10;;;;;;;;;;5070495;28;20111;-61
2023/08/31 01:01:04;;;;;;;6.03;2.10;;;;;;;;;;5077050;28;20174;-61
2023/08/31 01:03:41;;;;;;;4.00;1.90;;;;;;;;;;5059181;28;21767;-61
2023/08/31 01:06:16;;;;;;;5.50;2.30;;;;;;;;;;5073135;28;20045;-61
2023/08/31 01:08:51;;;;;;;5.38;2.58;;;;;;;;;;5073578;28;20127;-61
2023/08/31 01:11:25;;;;;;;5.68;2.75;;;;;;;;;;5060872;28;20094;-62
2023/08/31 01:13:59;;;;;;;6.32;2.50;;;;;;;;;;5072937;28;20070;-61
2023/08/31 01:16:26;;;;;;;7.38;2.67;;;;;;;;;;5060580;28;20044;-61
2023/08/31 01:18:55;;;;;;;6.57;2.75;;;;;;;;;;5094821;28;20048;-61
2023/08/31 01:21:28;;;;;;;6.28;2.85;;;;;;;;;;5071613;28;20056;-62
2023/08/31 01:23:57;;;;;;;8.48;3.03;;;;;;;;;;5063029;28;20052;-62
2023/08/31 01:26:24;;;;;;;8.05;2.75;;;;;;;;;;5061808;28;20044;-62
2023/08/31 01:28:52;;;;;;;6.82;2.92;;;;;;;;;;5081264;28;20107;-62
2023/08/31 01:31:20;;;;;;;6.30;2.83;;;;;;;;;;5091773;28;20044;-61
2023/08/31 01:33:46;;;;;;;6.43;2.83;;;;;;;;;;5059051;28;20043;-61
2023/08/31 01:36:19;;;;;;;7.25;3.15;;;;;;;;;;5067745;28;20051;-62
2023/08/31 01:38:51;;;;;;;7.65;3.38;;;;;;;;;;5059556;28;20142;-62
2023/08/31 01:41:22;;;;;;;6.35;3.28;;;;;;;;;;5075999;28;20056;-61
2023/08/31 01:43:51;;;;;;;8.63;3.22;;;;;;;;;;5078058;28;20195;-61
2023/08/31 01:46:18;;;;;;;7.40;3.65;;;;;;;;;;5063916;28;20060;-62
2023/08/31 01:48:45;;;;;;;8.13;3.35;;;;;;;;;;5078446;28;20087;-61
2023/08/31 01:51:12;;;;;;;9.13;3.53;;;;;;;;;;5076278;28;20047;-61
2023/08/31 01:53:39;;;;;;;7.68;3.65;;;;;;;;;;5067670;28;20067;-61
2023/08/31 01:56:07;;;;;;;6.97;3.50;;;;;;;;;;5074136;28;20055;-62
2023/08/31 01:58:36;;;;;;;10.20;3.72;;;;;;;;;;5047606;28;20048;-62
2023/08/31 02:01:02;;;;;;;8.32;3.53;;;;;;;;;;5056717;28;20039;-62
2023/08/31 02:03:29;;;;;;;6.82;3.35;;;;;;;;;;5017573;28;20210;-62
2023/08/31 02:05:56;;;;;;;6.57;3.42;;;;;;;;;;5040636;28;20055;-62
2023/08/31 02:08:22;;;;;;;8.60;3.38;;;;;;;;;;5047003;28;20051;-62
2023/08/31 02:10:49;;;;;;;10.50;3.97;;;;;;;;;;5060368;28;20052;-62
2023/08/31 02:13:16;;;;;;;8.07;3.35;;;;;;;;;;5067539;28;20139;-62
2023/08/31 02:15:44;;;;;;;6.45;3.28;;;;;;;;;;5014508;28;20077;-61
2023/08/31 02:18:11;;;;;;;7.95;3.30;;;;;;;;;;5013919;28;20570;-61
2023/08/31 02:20:38;;;;;;;12.18;3.72;;;;;;;;;;5009145;27;20058;-62
2023/08/31 02:23:05;;;;;;;8.13;3.45;;;;;;;;;;5034757;28;20044;-62
2023/08/31 02:25:32;;;;;;;8.95;3.10;;;;;;;;;;4991026;28;20050;-62
2023/08/31 02:27:59;;;;;;;8.88;3.70;;;;;;;;;;5016542;28;20058;-62
2023/08/31 02:30:26;;;;;;;7.78;3.30;;;;;;;;;;4989070;27;20061;-62
2023/08/31 02:32:54;;;;;;;6.97;3.35;;;;;;;;;;5038418;28;20055;-62
2023/08/31 02:35:21;;;;;;;7.50;3.80;;;;;;;;;;4959399;28;20241;-62
2023/08/31 02:37:48;;;;;;;8.85;3.90;;;;;;;;;;5012291;28;20048;-63
2023/08/31 02:40:15;;;;;;;8.15;3.70;;;;;;;;;;4987832;28;20049;-60
2023/08/31 02:42:42;;;;;;;7.20;3.35;;;;;;;;;;5033370;28;20058;-62
2023/08/31 02:45:09;;;;;;;10.23;3.95;;;;;;;;;;4998877;28;20057;-62
2023/08/31 02:47:36;;;;;;;9.52;3.65;;;;;;;;;;5009198;28;20072;-62
2023/08/31 02:50:06;;;;;;;8.10;3.78;;;;;;;;;;4996464;28;20070;-62
2023/08/31 02:52:33;;;;;;;12.75;3.72;;;;;;;;;;5021471;28;20558;-62
2023/08/31 02:54:59;;;;;;;8.27;3.40;;;;;;;;;;5000949;28;20487;-62
2023/08/31 02:57:26;;;;;;;7.78;3.70;;;;;;;;;;5004794;28;20065;-62
2023/08/31 02:59:53;;;;;;;7.45;3.38;;;;;;;;;;4994477;28;20050;-62
2023/08/31 03:02:20;;;;;;;9.05;3.60;;;;;;;;;;5009191;28;20078;-62
2023/08/31 03:04:46;;;;;;;7.95;3.58;;;;;;;;;;4971919;28;20061;-62
2023/08/31 03:07:15;;;;;;;9.25;3.70;;;;;;;;;;5015027;28;20048;-62
2023/08/31 03:09:42;;;;;;;8.18;3.67;;;;;;;;;;4995498;28;20057;-62
2023/08/31 03:12:09;;;;;;;7.82;3.67;;;;;;;;;;4989127;28;20054;-62
2023/08/31 03:14:35;;;;;;;8.88;3.35;;;;;;;;;;4976997;28;20081;-62
2023/08/31 03:17:03;;;;;;;8.88;4.10;;;;;;;;;;5011508;27;20115;-61
2023/08/31 03:19:29;;;;;;;10.20;3.72;;;;;;;;;;4996160;28;20311;-62
2023/08/31 03:21:56;;;;;;;8.85;3.60;;;;;;;;;;5005933;28;20131;-62
2023/08/31 03:24:24;;;;;;;8.18;3.70;;;;;;;;;;5013958;28;20135;-61
2023/08/31 03:26:51;;;;;;;7.10;3.47;;;;;;;;;;5000275;28;20064;-62
2023/08/31 03:29:18;;;;;;;7.30;3.53;;;;;;;;;;5002372;28;20062;-63
2023/08/31 03:31:44;;;;;;;7.70;3.72;;;;;;;;;;4998137;28;20061;-62
2023/08/31 03:34:11;;;;;;;7.07;3.33;;;;;;;;;;5024314;28;20050;-62
2023/08/31 03:36:38;;;;;;;7.45;3.42;;;;;;;;;;4976827;28;21111;-62
2023/08/31 03:39:04;;;;;;;5.93;3.22;;;;;;;;;;5003058;27;20100;-62
2023/08/31 03:41:32;;;;;;;8.23;3.65;;;;;;;;;;4993526;28;20093;-62
2023/08/31 03:43:59;;;;;;;7.35;2.97;;;;;;;;;;4990939;28;20137;-62
2023/08/31 03:46:26;;;;;;;7.50;2.80;;;;;;;;;;4977337;28;20065;-62
2023/08/31 03:48:53;;;;;;;6.80;2.92;;;;;;;;;;5026050;28;20129;-62
2023/08/31 03:51:19;;;;;;;6.35;2.72;;;;;;;;;;5011825;28;20070;-62
2023/08/31 03:53:46;;;;;;;6.95;2.92;;;;;;;;;;4987149;28;20073;-62
2023/08/31 03:56:13;;;;;;;6.00;2.67;;;;;;;;;;4990234;28;20053;-62
2023/08/31 03:58:41;;;;;;;6.82;2.85;;;;;;;;;;5028650;28;20114;-61
2023/08/31 04:01:09;;;;;;;8.45;3.28;;;;;;;;;;4997490;28;20058;-61
2023/08/31 04:03:37;;;;;;;8.48;2.90;;;;;;;;;;5050292;28;20055;-62
2023/08/31 04:06:05;;;;;;;6.97;2.63;;;;;;;;;;4993995;28;20065;-61
2023/08/31 04:08:31;;;;;;;5.93;2.90;;;;;;;;;;5001007;28;21179;-61
2023/08/31 04:10:58;;;;;;;8.68;2.88;;;;;;;;;;5001519;28;20301;-61
2023/08/31 04:13:25;;;;;;;7.68;2.60;;;;;;;;;;5035324;28;20500;-62
2023/08/31 04:15:53;;;;;;;7.20;2.97;;;;;;;;;;4997195;28;20081;-62
2023/08/31 04:18:21;;;;;;;6.18;2.92;;;;;;;;;;5011214;28;20078;-62
2023/08/31 04:20:50;;;;;;;5.32;2.65;;;;;;;;;;5012814;28;20086;-62
2023/08/31 04:23:17;;;;;;;6.72;2.72;;;;;;;;;;5040658;27;20060;-62
2023/08/31 04:25:44;;;;;;;8.13;3.33;;;;;;;;;;5003336;28;20061;-61
2023/08/31 04:28:11;;;;;;;7.35;3.17;;;;;;;;;;5016492;28;20057;-62
2023/08/31 04:30:37;;;;;;;8.18;3.30;;;;;;;;;;4997012;28;20085;-62
2023/08/31 04:33:07;;;;;;;12.18;3.92;;;;;;;;;;5031258;27;20063;-62
2023/08/31 04:35:34;;;;;;;8.68;4.28;;;;;;;;;;5021424;28;20115;-62
2023/08/31 04:38:00;;;;;;;12.48;4.35;;;;;;;;;;5016473;27;20056;-62
2023/08/31 04:40:29;;;;;;;12.38;4.95;;;;;;;;;;4988237;28;20053;-62
2023/08/31 04:42:55;;;;;;;9.05;3.97;;;;;;;;;;4994279;28;20076;-62
2023/08/31 04:45:22;;;;;;;10.88;4.80;;;;;;;;;;4984923;28;20136;-62
2023/08/31 04:47:49;;;;;;;13.10;5.20;;;;;;;;;;5012736;28;20079;-62
2023/08/31 04:50:17;;;;;;;11.98;5.25;;;;;;;;;;5006501;28;20053;-63
2023/08/31 04:52:47;;;;;;;16.60;5.25;;;;;;;;;;4993299;28;20078;-62
2023/08/31 04:55:14;;;;;;;12.18;5.00;;;;;;;;;;4998451;28;20114;-62
2023/08/31 04:57:41;;;;;;;13.10;5.60;;;;;;;;;;5005739;28;20052;-61
2023/08/31 05:00:10;;;;;;;10.95;5.10;;;;;;;;;;5005750;28;20054;-61
2023/08/31 05:02:37;;;;;;;12.00;5.30;;;;;;;;;;5018906;27;20213;-61
2023/08/31 05:05:05;;;;;;;18.23;5.40;;;;;;;;;;5083033;28;20067;-61
2023/08/31 05:07:33;;;;;;;14.35;5.78;;;;;;;;;;5025357;28;20080;-62
2023/08/31 05:10:00;;;;;;;10.07;5.22;;;;;;;;;;5003007;27;20062;-61
2023/08/31 05:12:26;;;;;;;12.85;5.30;;;;;;;;;;5006859;27;20153;-61
2023/08/31 05:14:53;;;;;;;12.45;5.55;;;;;;;;;;5050402;27;20077;-60
2023/08/31 05:17:20;;;;;;;13.70;5.75;;;;;;;;;;5000142;28;20057;-60
2023/08/31 05:19:47;;;;;;;11.18;5.82;;;;;;;;;;5012312;28;20061;-60
2023/08/31 05:22:13;;;;;;;14.40;5.97;;;;;;;;;;5009822;27;20056;-61
2023/08/31 05:24:42;;;;;;;13.55;6.57;;;;;;;;;;5034504;28;20045;-61
2023/08/31 05:27:08;;;;;;;11.05;5.75;;;;;;;;;;4989477;28;20058;-61
2023/08/31 05:29:35;;;;;;;15.15;6.18;;;;;;;;;;5012699;28;20054;-61
2023/08/31 05:32:02;;;;;;;12.50;6.15;;;;;;;;;;4999368;28;20227;-60
2023/08/31 05:34:30;;;;;;;14.02;6.32;;;;;;;;;;5028664;28;20050;-62
2023/08/31 05:36:57;;;;;;;17.23;6.18;;;;;;;;;;4991894;28;20073;-61
2023/08/31 05:39:23;;;;;;;10.55;6.13;;;;;;;;;;5011246;28;20118;-61
2023/08/31 05:41:52;;;;;;;13.73;5.97;;;;;;;;;;4992998;28;20102;-61
2023/08/31 05:44:18;;;;;;;12.60;5.93;;;;;;;;;;5024909;27;20055;-61
2023/08/31 05:46:45;;;;;;;10.02;5.47;;;;;;;;;;4999060;28;20057;-61
2023/08/31 05:49:12;;;;;;;12.07;5.57;;;;;;;;;;5029726;28;20057;-61
2023/08/31 05:51:38;;;;;;;12.20;5.90;;;;;;;;;;4998771;28;20058;-60
2023/08/31 05:54:10;;;;;;;11.57;5.45;;;;;;;;;;5017073;28;20063;-60
2023/08/31 05:56:37;;;;;;;11.07;5.10;;;;;;;;;;4964464;28;20046;-63
2023/08/31 05:59:05;;;;;;;12.50;4.80;;;;;;;;;;5020207;28;20050;-62
2023/08/31 06:01:32;;;;;;;10.05;4.25;;;;;;;;;;4988776;28;20050;-63
2023/08/31 06:03:59;;;;;;;8.45;4.82;;;;;;;;;;5004083;28;20057;-60
2023/08/31 06:06:25;;;;;;;14.85;5.43;;;;;;;;;;4992816;27;20062;-60
2023/08/31 06:08:53;;;;;;;11.27;5.10;;;;;;;;;;5023791;28;20050;-61
2023/08/31 06:11:20;;;;;;;13.07;5.57;;;;;;;;;;4994805;28;20099;-61
2023/08/31 06:13:47;;;;;;;10.77;5.75;;;;;;;;;;5015556;28;20066;-61
2023/08/31 06:16:15;;;;;;;9.98;5.63;;;;;;;;;;5004479;27;20556;-61
2023/08/31 06:18:41;;;;;;;11.35;5.88;;;;;;;;;;5008667;28;20077;-60
2023/08/31 06:21:08;;;;;;;13.70;6.00;;;;;;;;;;4995169;28;20126;-61
2023/08/31 06:23:35;;;;;;;11.55;5.85;;;;;;;;;;5031846;28;20075;-61
2023/08/31 06:26:01;;;;;;;12.82;5.63;;;;;;;;;;5019027;28;20054;-62
2023/08/31 06:28:28;;;;;;;12.75;6.38;;;;;;;;;;5005927;28;20051;-61
2023/08/31 06:30:55;;;;;;;14.73;5.80;;;;;;;;;;4996356;27;20054;-62
2023/08/31 06:33:23;;;;;;;10.75;5.72;;;;;;;;;;5009859;28;20055;-63
2023/08/31 06:35:51;;;;;;;8.82;5.15;;;;;;;;;;5008167;28;20263;-63
2023/08/31 06:38:18;;;;;;;10.63;5.60;;;;;;;;;;5001892;27;20095;-61
2023/08/31 06:40:44;;;;;;;15.73;6.13;;;;;;;;;;5000396;28;20061;-62
2023/08/31 06:43:11;;;;;;;11.60;5.72;;;;;;;;;;5003346;27;20095;-61
2023/08/31 06:45:38;;;;;;;11.82;5.80;;;;;;;;;;5022546;28;20077;-61
2023/08/31 06:48:08;;;;;;;14.40;5.97;;;;;;;;;;4995758;28;20057;-63
2023/08/31 06:50:36;;;;;;;11.60;5.95;;;;;;;;;;5003253;27;20122;-62
2023/08/31 06:53:04;;;;;;;10.32;5.90;;;;;;;;;;5011257;28;20049;-61
2023/08/31 06:55:31;;;;;;;11.05;5.72;;;;;;;;;;4966720;28;20137;-61
2023/08/31 06:57:58;;;;;;;11.63;5.28;;;;;;;;;;4999721;28;20054;-61
2023/08/31 07:00:25;;;;;;;10.77;5.35;;;;;;;;;;5005745;28;20278;-61
2023/08/31 07:02:52;;;;;;;12.10;5.75;;;;;;;;;;4994061;28;20096;-61
2023/08/31 07:05:25;;;;;;;12.25;5.20;;;;;;;;;;5015775;28;20054;-61
2023/08/31 07:07:54;;;;;;;9.98;5.45;;;;;;;;;;4987518;28;20085;-60
2023/08/31 07:10:20;;;;;;;11.52;5.75;;;;;;;;;;5014723;27;20061;-60
2023/08/31 07:12:50;;;;;;;14.80;5.65;;;;;;;;;;4996624;28;20054;-61
2023/08/31 07:15:17;;;;;;;14.27;5.68;;;;;;;;;;5031664;28;20103;-61
2023/08/31 07:17:44;;;;;;;11.90;5.13;;;;;;;;;;4995155;28;20058;-61
2023/08/31 07:20:12;;;;;;;17.65;5.90;;;;;;;;;;5008034;28;20157;-60
2023/08/31 07:22:40;;;;;;;11.32;5.40;;;;;;;;;;4995493;28;20065;-60
2023/08/31 07:25:09;;;;;;;10.18;5.43;;;;;;;;;;5048076;28;20057;-61
2023/08/31 07:27:36;;;;;;;11.00;4.90;;;;;;;;;;4997859;28;20042;-61
2023/08/31 07:30:06;;;;;;;11.55;5.22;;;;;;;;;;5016305;28;20058;-61
2023/08/31 07:32:34;;;;;;;12.70;4.97;;;;;;;;;;4994500;27;20046;-61
2023/08/31 07:35:04;;;;;;;13.65;5.13;;;;;;;;;;4998174;28;20073;-61
2023/08/31 07:37:31;;;;;;;10.25;4.75;;;;;;;;;;5013222;27;20057;-60
2023/08/31 07:39:58;;;;;;;11.02;5.38;;;;;;;;;;5009529;28;20107;-60
2023/08/31 07:42:27;;;;;;;9.40;5.15;;;;;;;;;;5010857;27;20531;-61
2023/08/31 07:44:53;;;;;;;9.85;4.85;;;;;;;;;;5018203;28;20058;-61
2023/08/31 07:47:20;;;;;;;9.80;4.70;;;;;;;;;;4965686;28;20107;-62
2023/08/31 07:49:47;;;;;;;9.07;4.68;;;;;;;;;;5014180;27;20108;-61
2023/08/31 07:52:16;;;;;;;11.30;4.78;;;;;;;;;;4995166;27;20057;-62
2023/08/31 07:54:43;;;;;;;10.07;5.00;;;;;;;;;;5025183;28;20514;-61
2023/08/31 07:57:10;;;;;;;11.27;5.32;;;;;;;;;;5012045;28;20062;-61
2023/08/31 07:59:39;;;;;;;11.02;5.47;;;;;;;;;;5001845;28;20077;-61
2023/08/31 08:02:06;;;;;;;10.20;5.28;;;;;;;;;;4995921;28;20461;-59
2023/08/31 08:04:33;;;;;;;14.60;5.38;;;;;;;;;;4959833;28;20054;-61
2023/08/31 08:07:00;;;;;;;10.73;4.82;;;;;;;;;;5004598;28;20064;-61
2023/08/31 08:09:27;;;;;;;13.60;5.03;;;;;;;;;;5008089;27;20473;-61
2023/08/31 08:11:53;;;;;;;10.18;5.03;;;;;;;;;;4995900;28;20045;-61
2023/08/31 08:14:20;;;;;;;12.23;5.65;;;;;;;;;;4994257;28;20170;-61
2023/08/31 08:16:48;;;;;;;9.77;5.00;;;;;;;;;;5004344;28;20079;-61
2023/08/31 08:19:21;;;;;;;8.32;4.47;;;;;;;;;;4980904;28;20054;-61
2023/08/31 08:21:48;;;;;;;10.55;5.15;;;;;;;;;;5000878;28;20213;-61
2023/08/31 08:24:14;;;;;;;10.13;4.93;;;;;;;;;;5006657;28;20085;-62
2023/08/31 08:26:41;;;;;;;10.82;5.28;;;;;;;;;;4991091;28;20046;-61
2023/08/31 08:29:08;;;;;;;9.40;4.65;;;;;;;;;;5013794;27;20060;-61
2023/08/31 08:31:35;;;;;;;13.82;5.15;;;;;;;;;;4996904;28;20072;-61
2023/08/31 08:34:05;;;;;;;12.48;5.22;;;;;;;;;;4995360;28;20061;-61
2023/08/31 08:36:32;;;;;;;10.45;5.03;;;;;;;;;;5020218;28;20100;-61
2023/08/31 08:38:59;;;;;;;12.07;5.30;;;;;;;;;;5004546;28;20074;-60
2023/08/31 08:41:27;;;;;;;9.82;4.57;;;;;;;;;;5005755;27;20078;-60
2023/08/31 08:43:54;;;;;;;;;;;;;;;;;;5010577;28;20076;-61
2023/08/31 08:46:22;;;;;;;11.63;4.32;;;;;;;;;;5024884;27;19925;-62
2023/08/31 08:48:50;;;;;;;8.07;4.20;;;;;;;;;;5014185;28;20054;-63
2023/08/31 08:51:18;;;;;;;8.80;4.30;;;;;;;;;;4997185;28;20073;-62
2023/08/31 08:53:47;;;;;;;11.68;4.78;;;;;;;;;;4985807;28;20050;-60
2023/08/31 08:56:14;;;;;;;9.85;4.32;;;;;;;;;;5039491;27;20050;-61
2023/08/31 08:58:40;;;;;;;10.50;4.18;;;;;;;;;;4997253;27;20064;-60
2023/08/31 09:01:08;;;;;;;10.10;4.45;;;;;;;;;;5006331;28;20081;-60
2023/08/31 09:03:35;;;;;;;9.80;4.30;;;;;;;;;;4994186;28;20064;-60
2023/08/31 09:06:03;;;;;;;10.75;4.05;;;;;;;;;;4994909;28;20137;-63
2023/08/31 09:08:34;;;;;;;9.50;4.22;;;;;;;;;;5007282;28;20065;-61
2023/08/31 09:11:01;;;;;;;8.18;3.50;;;;;;;;;;4997670;28;20068;-62
2023/08/31 09:13:30;;;;;;;6.35;3.13;;;;;;;;;;4997875;28;20072;-61
2023/08/31 09:15:57;;;;;;;6.88;2.60;;;;;;;;;;4972775;28;20060;-61
2023/08/31 09:18:26;;;;;;;10.52;2.42;;;;;;;;;;5005222;28;20070;-61
2023/08/31 09:20:54;;;;;;;9.80;2.88;;;;;;;;;;5007506;28;20081;-61
2023/08/31 09:23:21;;;;;;;7.15;2.67;;;;;;;;;;4997689;28;20062;-62
2023/08/31 09:25:52;;;;;;;7.25;3.15;;;;;;;;;;4961353;28;20133;-62
2023/08/31 09:28:21;;;;;;;7.00;3.00;;;;;;;;;;4989929;28;20132;-62
2023/08/31 09:30:49;;;;;;;8.07;2.95;;;;;;;;;;4990536;28;20118;-62
2023/08/31 09:33:17;;;;;;;9.63;3.63;;;;;;;;;;4997517;28;20081;-61
2023/08/31 09:35:50;;;;;;;5.95;2.05;;;;;;;;;;4967404;28;20199;-62
2023/08/31 09:38:20;;;;;;;13.45;2.88;;;;;;;;;;4990795;28;20119;-62
2023/08/31 09:40:47;;;;;;;10.05;3.35;;;;;;;;;;4993001;28;20060;-60
2023/08/31 09:43:20;;;;;;;8.77;3.05;;;;;;;;;;4995557;28;20057;-63
2023/08/31 09:45:48;;;;;;;5.47;2.53;;;;;;;;;;4990661;28;20069;-62
2023/08/31 09:48:16;;;;;;;7.30;2.75;;;;;;;;;;4992643;28;20053;-62
2023/08/31 09:50:44;;;;;;;;;;;;;;;;;;4991462;28;20126;-62
2023/08/31 09:53:12;;;;;;;4.38;2.35;;;;;;;;;;4997674;28;19937;-62
2023/08/31 09:55:40;;;;;;;8.82;3.47;;;;;;;;;;4971146;28;20082;-62
2023/08/31 09:58:08;;;;;;;;;;;;;;;;;;4999482;28;20088;-62
2023/08/31 10:00:37;;;;;;;10.53;3.70;;;;;;;;;;4991327;28;19925;-62
2023/08/31 10:03:06;;;;;;;5.30;2.40;;;;;;;;;;5016599;27;20081;-62
2023/08/31 10:05:33;;;;;;;8.32;2.63;;;;;;;;;;5024570;28;20067;-63
2023/08/31 10:08:01;;;;;;;8.50;2.80;;;;;;;;;;5005480;28;20061;-63
2023/08/31 10:10:30;;;;;;;7.30;2.22;;;;;;;;;;5002042;28;20443;-62
2023/08/31 10:12:57;;;;;;;;;;;;;;;;;;4995962;28;20085;-61
2023/08/31 10:15:24;;;;;;;7.13;2.03;;;;;;;;;;5030851;28;19938;-63
2023/08/31 10:17:52;;;;;;;4.15;1.70;;;;;;;;;;4991734;28;20534;-62
2023/08/31 10:20:19;;;;;;;5.40;1.70;;;;;;;;;;5003479;28;20045;-63
2023/08/31 10:22:49;;;;;;;7.07;1.60;;;;;;;;;;5000981;28;20057;-63
2023/08/31 10:25:16;;;;;;;3.85;1.55;;;;;;;;;;5010638;28;20048;-62
2023/08/31 10:27:46;;;;;;;6.05;1.75;;;;;;;;;;5006529;28;20241;-61
2023/08/31 10:30:26;;;;;;;1.90;0.98;;;;;;;;;;5004812;28;20054;-61
2023/08/31 10:33:23;;;;;;;5.57;1.38;;;;;;;;;;5000955;28;20481;-61
2023/08/31 10:35:51;;;;;;;4.15;1.02;;;;;;;;;;5035867;28;20079;-63
2023/08/31 10:38:25;;;;;;;4.18;1.10;;;;;;;;;;4994578;28;20058;-63
2023/08/31 10:41:02;;;;;;;4.05;1.92;;;;;;;;;;5021416;28;20065;-63
2023/08/31 10:43:44;;;;;;;5.68;2.17;;;;;;;;;;5055968;28;20047;-63
2023/08/31 10:46:17;;;;;;;2.03;1.27;;;;;;;;;;4997861;28;20054;-63
2023/08/31 10:48:55;;;;;;;7.22;1.30;;;;;;;;;;4977409;28;20115;-61
2023/08/31 10:51:26;;;;;;;2.65;1.17;;;;;;;;;;5031142;28;20060;-62
2023/08/31 10:53:53;;;;;;;5.65;1.92;;;;;;;;;;4979426;28;20054;-62
2023/08/31 10:56:20;;;;;;;20.45;8.63;;;;;;;;;;4991773;28;20197;-62
2023/08/31 10:59:00;;;;;;;5.28;2.05;;;;;;;;;;4970236;28;20057;-63
2023/08/31 11:01:52;;;;;;;6.55;1.80;;;;;;;;;;5051301;28;20044;-62
2023/08/31 11:04:21;;;;;;;3.35;1.15;;;;;;;;;;4955941;28;20066;-64
2023/08/31 11:06:48;;;;;;;2.75;1.00;;;;;;;;;;4969692;28;20065;-63
2023/08/31 11:09:20;;;;;;;4.35;1.00;;;;;;;;;;4979761;28;20150;-63
2023/08/31 11:11:47;;;;;;;1.65;0.90;;;;;;;;;;4972519;28;20053;-63
2023/08/31 11:14:15;;;;;;;4.03;1.00;;;;;;;;;;4967403;28;20077;-64
2023/08/31 11:16:42;;;;;;;2.00;0.80;;;;;;;;;;5004223;28;20055;-63
2023/08/31 11:19:09;;;;;;;4.10;0.90;;;;;;;;;;4965309;28;20054;-63
2023/08/31 11:21:39;;;;;;;0.82;0.60;;;;;;;;;;5045514;28;20069;-62
2023/08/31 11:24:06;;;;;;;1.90;0.75;;;;;;;;;;4966212;28;22891;-64
2023/08/31 11:26:36;;;;;;;3.47;1.33;;;;;;;;;;4969025;28;20046;-62
2023/08/31 11:29:12;;;;;;;6.93;2.63;;;;;;;;;;4958950;28;20062;-62
2023/08/31 11:31:41;;;;;;;4.20;1.08;;;;;;;;;;5047037;28;20051;-62
2023/08/31 11:34:08;;;;;;;0.95;0.50;;;;;;;;;;4964595;28;20069;-62
2023/08/31 11:36:35;;;;;;;2.65;0.70;;;;;;;;;;4998435;28;20044;-63
2023/08/31 11:39:04;;;;;;;2.97;0.70;;;;;;;;;;4983233;28;20062;-62
2023/08/31 11:41:33;;;;;;;2.05;0.82;;;;;;;;;;4981045;28;20092;-63
2023/08/31 11:44:00;;;;;;;3.45;0.90;;;;;;;;;;4955909;28;20077;-62
2023/08/31 11:46:27;;;;;;;3.13;0.80;;;;;;;;;;4970322;28;20123;-62
2023/08/31 11:48:54;;;;;;;1.27;0.70;;;;;;;;;;4992478;28;20042;-62
2023/08/31 11:51:21;;;;;;;1.17;0.50;;;;;;;;;;4993069;28;20054;-62
2023/08/31 11:53:48;;;;;;;1.83;0.70;;;;;;;;;;4982702;28;20111;-62
2023/08/31 11:56:16;;;;;;;1.05;0.65;;;;;;;;;;4971242;28;20091;-62
2023/08/31 11:58:47;;;;;;;4.18;0.80;;;;;;;;;;4977100;28;20058;-61
2023/08/31 12:01:19;;;;;;;4.97;0.80;;;;;;;;;;4992718;28;20058;-61
2023/08/31 12:03:46;;;;;;;1.15;0.70;;;;;;;;;;5060486;28;20171;-61
2023/08/31 12:06:17;;;;;;;5.38;0.60;;;;;;;;;;5058521;28;20088;-62
2023/08/31 12:08:46;;;;;;;2.15;0.63;;;;;;;;;;5059560;28;20131;-61
2023/08/31 12:11:18;;;;;;;1.58;0.60;;;;;;;;;;5061315;28;20126;-62
2023/08/31 12:13:46;;;;;;;3.42;0.82;;;;;;;;;;5063706;28;20052;-62
2023/08/31 12:16:13;;;;;;;2.28;0.52;;;;;;;;;;5051298;28;20059;-61
2023/08/31 12:18:40;;;;;;;3.58;0.75;;;;;;;;;;5061030;28;20091;-63
2023/08/31 12:21:07;;;;;;;2.50;0.75;;;;;;;;;;5063580;28;20056;-64
2023/08/31 12:23:34;;;;;;;4.53;0.93;;;;;;;;;;5079620;28;20234;-63
2023/08/31 12:26:01;;;;;;;1.63;0.65;;;;;;;;;;5075546;28;20147;-61
2023/08/31 12:28:27;;;;;;;5.22;0.90;;;;;;;;;;5055999;28;20072;-64
2023/08/31 12:30:56;;;;;;;5.82;2.40;;;;;;;;;;5081038;28;20074;-64
2023/08/31 12:33:23;;;;;;;;;;;;;;;;;;5080119;28;20060;-60
2023/08/31 12:35:50;;;;;;;16.52;7.07;;;;;;;;;;5076867;28;19934;-62
2023/08/31 12:38:17;;;;;;;2.72;1.00;;;;;;;;;;5073253;28;20048;-61
2023/08/31 12:40:45;;;;;;;4.28;0.90;;;;;;;;;;5060477;28;20125;-64
2023/08/31 12:43:12;;;;;;;3.00;0.68;;;;;;;;;;5078668;28;20066;-62
2023/08/31 12:45:39;;;;;;;4.68;0.88;;;;;;;;;;5043951;28;20051;-62
2023/08/31 12:48:10;;;;;;;2.92;0.88;;;;;;;;;;5068246;28;20059;-63
2023/08/31 12:50:37;;;;;;;6.13;1.48;;;;;;;;;;5060193;28;20044;-63
2023/08/31 12:53:04;;;;;;;4.57;1.15;;;;;;;;;;5063531;28;20051;-63
2023/08/31 12:55:31;;;;;;;5.50;0.98;;;;;;;;;;5058241;28;20050;-64
2023/08/31 12:57:58;;;;;;;2.97;0.80;;;;;;;;;;5064670;28;20081;-61
2023/08/31 13:00:25;;;;;;;1.88;0.75;;;;;;;;;;5051225;28;20056;-62
2023/08/31 13:02:51;;;;;;;2.00;0.68;;;;;;;;;;5063471;28;20179;-61
2023/08/31 13:05:20;;;;;;;1.05;0.70;;;;;;;;;;5049922;28;20157;-63
2023/08/31 13:07:47;;;;;;;1.88;0.70;;;;;;;;;;4997945;28;20719;-62
2023/08/31 13:10:14;;;;;;;8.80;3.42;;;;;;;;;;4995951;27;20114;-62
2023/08/31 13:12:41;;;;;;;2.45;0.93;;;;;;;;;;4996384;28;20065;-63
2023/08/31 13:15:10;;;;;;;2.65;0.85;;;;;;;;;;5061473;28;20138;-60
2023/08/31 13:17:37;;;;;;;2.75;1.15;;;;;;;;;;5056318;28;20077;-62
2023/08/31 13:20:09;;;;;;;4.47;0.80;;;;;;;;;;5061883;28;20050;-61
2023/08/31 13:22:37;;;;;;;4.53;1.05;;;;;;;;;;5054242;28;20054;-62
2023/08/31 13:25:07;;;;;;;2.38;0.80;;;;;;;;;;4990416;28;20084;-63
2023/08/31 13:27:34;;;;;;;8.32;0.93;;;;;;;;;;4997129;28;20149;-62
2023/08/31 13:30:00;;;;;;;3.67;0.93;;;;;;;;;;4990212;28;20101;-62
2023/08/31 13:32:27;;;;;;;4.47;1.08;;;;;;;;;;4989754;28;20169;-62
2023/08/31 13:34:54;;;;;;;1.42;0.70;;;;;;;;;;4993500;28;20062;-61
2023/08/31 13:37:21;;;;;;;2.75;0.80;;;;;;;;;;4994730;28;20068;-63
2023/08/31 13:39:51;;;;;;;7.47;3.28;;;;;;;;;;4994388;28;20106;-61
2023/08/31 13:42:18;;;;;;;5.28;2.00;;;;;;;;;;5060214;28;20145;-63
2023/08/31 13:44:44;;;;;;;6.43;3.22;;;;;;;;;;5052357;28;20144;-62
2023/08/31 13:47:13;;;;;;;1.33;0.90;;;;;;;;;;4998138;28;20077;-62
2023/08/31 13:49:40;;;;;;;1.38;0.82;;;;;;;;;;5062556;28;20153;-62
2023/08/31 13:52:09;;;;;;;2.42;0.77;;;;;;;;;;4997832;28;20164;-62
2023/08/31 13:54:36;;;;;;;2.20;0.80;;;;;;;;;;5050739;28;20069;-61
2023/08/31 13:57:04;;;;;;;2.63;0.60;;;;;;;;;;5078951;28;20057;-62
2023/08/31 13:59:31;;;;;;;2.67;0.98;;;;;;;;;;5062616;28;20159;-63
2023/08/31 14:01:58;;;;;;;5.32;0.82;;;;;;;;;;4994976;28;20070;-63
2023/08/31 14:04:25;;;;;;;1.95;0.73;;;;;;;;;;4942496;28;20058;-63
2023/08/31 14:06:52;;;;;;;3.65;1.00;;;;;;;;;;4964023;28;20058;-62
2023/08/31 14:09:19;;;;;;;5.05;1.00;;;;;;;;;;4991197;28;20212;-63
2023/08/31 14:11:46;;;;;;;2.55;0.77;;;;;;;;;;5003038;28;20061;-62
2023/08/31 14:14:14;;;;;;;5.82;0.70;;;;;;;;;;4940575;28;20133;-63
2023/08/31 14:16:41;;;;;;;1.10;0.68;;;;;;;;;;4979506;28;20049;-64
2023/08/31 14:19:12;;;;;;;4.75;0.90;;;;;;;;;;4977329;28;20057;-63
2023/08/31 14:21:39;;;;;;;0.90;0.70;;;;;;;;;;4980433;28;20057;-61
2023/08/31 14:24:09;;;;;;;3.83;0.90;;;;;;;;;;4975011;28;20054;-62
2023/08/31 14:26:35;;;;;;;4.03;0.88;;;;;;;;;;4955386;28;20051;-62
2023/08/31 14:29:02;;;;;;;5.63;1.25;;;;;;;;;;4972473;28;20161;-61
2023/08/31 14:31:30;;;;;;;4.93;1.00;;;;;;;;;;4977079;28;20123;-63
2023/08/31 14:33:57;;;;;;;0.93;0.60;;;;;;;;;;4991412;28;20111;-64
2023/08/31 14:36:24;;;;;;;1.75;0.60;;;;;;;;;;4939703;28;20058;-63
2023/08/31 14:38:51;;;;;;;6.65;0.90;;;;;;;;;;4992744;28;20061;-63
2023/08/31 14:41:17;;;;;;;5.95;0.93;;;;;;;;;;4981031;28;20061;-63
2023/08/31 14:43:44;;;;;;;3.58;1.67;;;;;;;;;;4978744;28;20123;-63
2023/08/31 14:46:13;;;;;;;6.80;1.40;;;;;;;;;;4987971;28;20053;-61